Time;durP1;ratioP1;P1;durP2;ratioP2;P2;SDS_P1;SDS_P2;PMS_P1;PMS_P2;Temp;Humidity;BMP_temperature;BMP_pressure;BME280_temperature;BME280_humidity;BME280_pressure;Samples;Min_cycle;Max_cycle;Signal;HPM_P1;HPM_P2
2022/01/25 00:08:50;;;;;;;;;;;-0.80;99.90;;;;;;4993755;28;19940;-76
2022/01/25 00:25:09;;;;;;;;;;;-1.20;99.90;;;;;;4993874;28;19933;-76
2022/01/25 00:27:43;;;;;;;;;;;-1.10;99.90;;;;;;4994878;28;19945;-77
2022/01/25 00:33:03;;;;;;;;;;;-1.10;99.90;;;;;;4972058;28;19926;-76
2022/01/25 00:35:31;;;;;;;;;;;-1.10;99.90;;;;;;5001257;28;20018;-76
2022/01/25 00:37:57;;;;;;;;;;;-1.00;99.90;;;;;;5005953;28;19931;-76
2022/01/25 00:40:24;;;;;;;;;;;-1.10;99.90;;;;;;4993631;28;19964;-77
2022/01/25 00:42:51;;;;;;;;;;;-1.10;99.90;;;;;;4993671;28;20016;-76
2022/01/25 00:45:20;;;;;;;;;;;-1.10;99.90;;;;;;4998181;28;19926;-76
2022/01/25 00:47:49;;;;;;;;;;;-1.20;99.90;;;;;;5000567;28;20350;-77
2022/01/25 00:50:16;;;;;;;;;;;-1.20;99.90;;;;;;4992013;28;19973;-76
2022/01/25 00:55:43;;;;;;;;;;;-1.20;99.90;;;;;;4971989;28;19972;-77
2022/01/25 00:58:10;;;;;;;;;;;-1.30;99.90;;;;;;4964980;28;19927;-76
2022/01/25 01:00:37;;;;;;;;;;;-1.30;99.90;;;;;;4988084;28;19925;-76
2022/01/25 01:03:04;;;;;;;;;;;-1.30;99.90;;;;;;4998831;28;19926;-77
2022/01/25 01:05:30;;;;;;;;;;;-1.30;99.90;;;;;;5000022;28;19932;-77
2022/01/25 01:07:58;;;;;;;;;;;-1.30;99.90;;;;;;4998632;28;20008;-77
2022/01/25 01:10:26;;;;;;;;;;;-1.30;99.90;;;;;;5010258;28;20447;-77
2022/01/25 01:15:54;;;;;;;;;;;-1.30;99.90;;;;;;4993544;28;19933;-76
2022/01/25 01:29:29;;;;;;;;;;;-1.40;99.90;;;;;;4996310;28;19960;-76
2022/01/25 01:32:05;;;;;;;;;;;-1.40;99.90;;;;;;4994304;28;19926;-76
2022/01/25 01:35:11;;;;;;;;;;;-1.30;99.90;;;;;;4995096;28;19955;-75
2022/01/25 01:38:08;;;;;;;;;;;-1.20;99.90;;;;;;4999466;28;19930;-76
2022/01/25 01:40:59;;;;;;;;;;;-1.30;99.90;;;;;;4999841;28;20504;-75
2022/01/25 01:43:31;;;;;;;;;;;-1.40;99.90;;;;;;4996595;28;19933;-76
2022/01/25 01:46:05;;;;;;;;;;;-1.30;99.90;;;;;;4996743;28;19933;-76
2022/01/25 01:48:36;;;;;;;;;;;-1.40;99.90;;;;;;4997223;28;19934;-76
2022/01/25 01:51:07;;;;;;;;;;;-1.50;99.90;;;;;;5003555;28;20424;-75
2022/01/25 01:53:35;;;;;;;;;;;-1.50;99.90;;;;;;5005430;28;19932;-76
2022/01/25 01:56:03;;;;;;;;;;;-1.50;99.90;;;;;;5001183;28;19925;-77
2022/01/25 01:58:30;;;;;;;;;;;-1.60;99.90;;;;;;5007925;28;20017;-76
2022/01/25 02:00:57;;;;;;;;;;;-1.60;99.90;;;;;;5010003;28;19926;-76
2022/01/25 02:03:24;;;;;;;;;;;-1.60;99.90;;;;;;5003583;28;19925;-76
2022/01/25 02:05:51;;;;;;;;;;;-1.70;99.90;;;;;;4995041;28;19926;-77
2022/01/25 02:08:17;;;;;;;;;;;-1.60;99.90;;;;;;4999429;28;20017;-77
2022/01/25 02:10:44;;;;;;;;;;;-1.70;99.90;;;;;;5009923;28;19926;-77
2022/01/25 02:13:12;;;;;;;;;;;-1.80;99.90;;;;;;5003186;28;19972;-77
2022/01/25 02:15:44;;;;;;;;;;;-1.80;99.90;;;;;;4997449;28;19990;-77
2022/01/25 02:23:42;;;;;;;;;;;-1.70;99.90;;;;;;4998055;28;19949;-76
2022/01/25 02:26:10;;;;;;;;;;;-1.60;99.90;;;;;;4996640;28;19934;-76
2022/01/25 02:28:38;;;;;;;;;;;-1.60;99.90;;;;;;5005642;28;19968;-76
2022/01/25 02:31:06;;;;;;;;;;;-1.70;99.90;;;;;;5005280;28;19926;-76
2022/01/25 02:33:32;;;;;;;;;;;-1.70;99.90;;;;;;5003183;28;19940;-76
2022/01/25 02:36:01;;;;;;;;;;;-1.70;99.90;;;;;;5007856;28;20391;-76
2022/01/25 02:38:30;;;;;;;;;;;-1.80;99.90;;;;;;4997195;28;19926;-76
2022/01/25 02:40:57;;;;;;;;;;;-1.80;99.90;;;;;;4998089;28;20561;-76
2022/01/25 02:43:24;;;;;;;;;;;-1.80;99.90;;;;;;5001647;28;19932;-76
2022/01/25 02:46:07;;;;;;;;;;;-1.90;99.90;;;;;;4996170;28;20020;-76
2022/01/25 02:48:46;;;;;;;;;;;-1.90;99.90;;;;;;4997741;28;20005;-76
2022/01/25 02:51:14;;;;;;;;;;;-2.00;99.90;;;;;;4995973;28;19933;-76
2022/01/25 02:53:40;;;;;;;;;;;-1.90;99.90;;;;;;4996400;28;19936;-75
2022/01/25 02:56:07;;;;;;;;;;;-1.90;99.90;;;;;;5006584;28;19926;-76
2022/01/25 02:58:33;;;;;;;;;;;-1.80;99.90;;;;;;5005176;28;19937;-76
2022/01/25 03:01:00;;;;;;;;;;;-1.70;99.90;;;;;;5006854;28;20299;-76
2022/01/25 03:03:27;;;;;;;;;;;-1.50;99.90;;;;;;4996587;28;19933;-76
2022/01/25 03:05:53;;;;;;;;;;;-1.40;99.90;;;;;;4997615;28;19926;-76
2022/01/25 03:08:22;;;;;;;;;;;-1.30;99.90;;;;;;5000459;28;19979;-75
2022/01/25 03:10:48;;;;;;;;;;;-1.30;99.90;;;;;;4997846;28;19932;-76
2022/01/25 03:13:19;;;;;;;;;;;-1.30;99.90;;;;;;4995214;28;20022;-75
2022/01/25 03:15:59;;;;;;;;;;;-1.30;99.90;;;;;;4996472;28;19925;-75
2022/01/25 03:18:40;;;;;;;;;;;-1.30;99.90;;;;;;5003667;28;19934;-76
2022/01/25 03:21:32;;;;;;;;;;;-1.30;99.90;;;;;;5007405;28;19978;-75
2022/01/25 03:24:01;;;;;;;;;;;-1.40;99.90;;;;;;4994758;28;20016;-75
2022/01/25 03:26:27;;;;;;;;;;;-1.30;99.90;;;;;;4998106;28;20403;-75
2022/01/25 03:28:55;;;;;;;;;;;-1.10;99.90;;;;;;4993121;28;19929;-75
2022/01/25 03:31:21;;;;;;;;;;;-1.00;99.90;;;;;;4999450;28;19926;-75
2022/01/25 03:33:48;;;;;;;;;;;-0.90;99.90;;;;;;4995286;28;20475;-75
2022/01/25 03:36:15;;;;;;;;;;;-0.80;99.90;;;;;;5007097;28;20296;-75
2022/01/25 03:38:42;;;;;;;;;;;-0.70;99.90;;;;;;4998817;28;19926;-75
2022/01/25 03:41:11;;;;;;;;;;;-0.70;99.90;;;;;;4997375;28;19952;-76
2022/01/25 03:43:38;;;;;;;;;;;-0.60;99.90;;;;;;4996557;28;20385;-77
2022/01/25 03:46:11;;;;;;;;;;;-0.50;99.90;;;;;;4997242;28;19925;-76
2022/01/25 03:51:22;;;;;;;;;;;-0.40;99.90;;;;;;4998446;28;20020;-77
2022/01/25 03:53:48;;;;;;;;;;;-0.40;99.90;;;;;;5006492;28;20350;-77
2022/01/25 03:56:16;;;;;;;;;;;-0.30;99.90;;;;;;4999249;28;19926;-77
2022/01/25 03:58:43;;;;;;;;;;;-0.30;99.90;;;;;;4999964;28;19932;-77
2022/01/25 04:01:10;;;;;;;;;;;-0.20;99.90;;;;;;4994646;28;19926;-76
2022/01/25 04:03:42;;;;;;;;;;;-0.20;99.90;;;;;;5002660;28;20013;-77
2022/01/25 04:06:10;;;;;;;;;;;-0.10;99.90;;;;;;5007692;28;20427;-75
2022/01/25 04:08:37;;;;;;;;;;;0.00;99.90;;;;;;5002711;28;20020;-76
2022/01/25 04:11:04;;;;;;;;;;;0.00;99.90;;;;;;4995173;28;19932;-76
2022/01/25 04:13:32;;;;;;;;;;;0.10;99.90;;;;;;5002325;28;19936;-76
2022/01/25 04:16:05;;;;;;;;;;;0.10;99.90;;;;;;4998728;28;19933;-76
2022/01/25 04:18:35;;;;;;;;;;;0.10;99.90;;;;;;4995924;28;20273;-76
2022/01/25 04:21:10;;;;;;;;;;;0.10;99.90;;;;;;4994205;28;19926;-76
2022/01/25 04:26:21;;;;;;;;;;;0.10;99.90;;;;;;4994184;28;19940;-76
2022/01/25 04:28:49;;;;;;;;;;;0.10;99.90;;;;;;5004627;28;19925;-77
2022/01/25 04:31:18;;;;;;;;;;;0.20;99.90;;;;;;4995448;28;19926;-77
2022/01/25 04:34:06;;;;;;;;;;;0.20;99.90;;;;;;5002562;28;19929;-77
2022/01/25 04:36:55;;;;;;;;;;;0.20;99.90;;;;;;4996825;28;19926;-77
2022/01/25 04:50:34;;;;;;;;;;;0.30;99.90;;;;;;4998150;28;19940;-76
2022/01/25 04:53:09;;;;;;;;;;;0.30;99.90;;;;;;4993066;28;19934;-77
2022/01/25 04:55:41;;;;;;;;;;;0.30;99.90;;;;;;5007784;28;19969;-77
2022/01/25 04:58:14;;;;;;;;;;;0.40;99.90;;;;;;4998839;28;19971;-78
2022/01/25 05:00:42;;;;;;;;;;;0.40;99.90;;;;;;5001223;28;20434;-77
2022/01/25 05:03:12;;;;;;;;;;;0.40;99.90;;;;;;5001894;28;20012;-77
2022/01/25 05:05:52;;;;;;;;;;;0.40;99.90;;;;;;5007461;28;19926;-76
2022/01/25 05:08:29;;;;;;;;;;;0.40;99.90;;;;;;4998943;28;20319;-76
2022/01/25 05:11:00;;;;;;;;;;;0.50;99.90;;;;;;4995024;28;19932;-77
2022/01/25 05:13:40;;;;;;;;;;;0.50;99.90;;;;;;4999272;28;19941;-77
2022/01/25 05:16:16;;;;;;;;;;;0.50;99.90;;;;;;5005220;28;19932;-77
2022/01/25 05:18:45;;;;;;;;;;;0.60;99.90;;;;;;4993074;28;19972;-76
2022/01/25 05:23:56;;;;;;;;;;;0.40;99.90;;;;;;4996948;28;19937;-77
2022/01/25 05:26:24;;;;;;;;;;;0.40;99.90;;;;;;5008583;28;19940;-77
2022/01/25 05:28:50;;;;;;;;;;;0.40;99.90;;;;;;4997788;28;19932;-77
2022/01/25 05:31:18;;;;;;;;;;;0.40;99.90;;;;;;4997954;28;20012;-76
2022/01/25 05:33:45;;;;;;;;;;;0.40;99.90;;;;;;4994882;28;19926;-77
2022/01/25 05:36:13;;;;;;;;;;;0.50;99.90;;;;;;4996879;28;20338;-77
2022/01/25 05:38:40;;;;;;;;;;;0.50;99.90;;;;;;5001943;28;20007;-77
2022/01/25 05:41:06;;;;;;;;;;;0.50;99.90;;;;;;5005367;28;19936;-77
2022/01/25 05:44:11;;;;;;;;;;;0.50;99.90;;;;;;5001652;28;19993;-77
2022/01/25 05:46:44;;;;;;;;;;;0.60;99.90;;;;;;4998434;28;19979;-77
2022/01/25 05:49:11;;;;;;;;;;;0.40;99.90;;;;;;5005315;28;19941;-77
2022/01/25 05:51:37;;;;;;;;;;;0.50;99.90;;;;;;5012913;28;19926;-78
2022/01/25 05:54:04;;;;;;;;;;;0.50;99.90;;;;;;5000313;28;19942;-78
2022/01/25 05:56:31;;;;;;;;;;;0.60;99.90;;;;;;4998303;28;19926;-78
2022/01/25 05:58:57;;;;;;;;;;;0.60;99.90;;;;;;5003637;28;20020;-79
2022/01/25 06:01:24;;;;;;;;;;;0.50;99.90;;;;;;5005503;28;20368;-79
2022/01/25 06:03:54;;;;;;;;;;;0.50;99.90;;;;;;5002257;28;19932;-79
2022/01/25 06:06:20;;;;;;;;;;;0.50;99.90;;;;;;5000362;28;19960;-78
2022/01/25 06:08:47;;;;;;;;;;;0.60;99.90;;;;;;5000997;28;19932;-79
2022/01/25 06:11:14;;;;;;;;;;;0.60;99.90;;;;;;5003164;28;20413;-78
2022/01/25 06:13:40;;;;;;;;;;;0.60;99.90;;;;;;4999040;28;19936;-78
2022/01/25 06:16:07;;;;;;;;;;;0.60;99.90;;;;;;4996807;28;19925;-77
2022/01/25 06:18:34;;;;;;;;;;;0.60;99.90;;;;;;4998403;28;19932;-78
2022/01/25 06:21:02;;;;;;;;;;;0.60;99.90;;;;;;5001610;28;19926;-78
2022/01/25 06:23:28;;;;;;;;;;;0.60;99.90;;;;;;4998329;28;19926;-78
2022/01/25 06:25:55;;;;;;;;;;;0.60;99.90;;;;;;4996095;28;19932;-76
2022/01/25 06:28:21;;;;;;;;;;;0.60;99.90;;;;;;5002375;28;19929;-75
2022/01/25 06:30:48;;;;;;;;;;;0.60;99.90;;;;;;4994495;28;19932;-75
2022/01/25 06:33:15;;;;;;;;;;;0.70;99.90;;;;;;4998363;28;19926;-73
2022/01/25 06:35:44;;;;;;;;;;;0.70;99.90;;;;;;4999335;28;19926;-76
2022/01/25 06:38:12;;;;;;;;;;;0.70;99.90;;;;;;5004447;28;20384;-75
2022/01/25 06:40:39;;;;;;;;;;;0.80;99.90;;;;;;4999583;28;19925;-76
2022/01/25 06:43:05;;;;;;;;;;;0.80;99.90;;;;;;4996052;28;19933;-76
2022/01/25 06:45:33;;;;;;;;;;;0.80;99.90;;;;;;5004698;28;19934;-76
2022/01/25 06:48:00;;;;;;;;;;;0.80;99.90;;;;;;4989357;28;19926;-76
2022/01/25 06:50:26;;;;;;;;;;;0.80;99.90;;;;;;5003183;28;19932;-76
2022/01/25 06:52:53;;;;;;;;;;;0.80;99.90;;;;;;5004581;28;19934;-77
2022/01/25 06:55:23;;;;;;;;;;;0.80;99.90;;;;;;5001269;28;20402;-76
2022/01/25 06:57:50;;;;;;;;;;;0.80;99.90;;;;;;5000300;28;19925;-76
2022/01/25 07:00:19;;;;;;;;;;;0.80;99.90;;;;;;5011738;28;19926;-77
2022/01/25 07:02:46;;;;;;;;;;;0.90;99.90;;;;;;4993835;28;19932;-77
2022/01/25 07:05:12;;;;;;;;;;;0.90;99.90;;;;;;5005544;28;19925;-77
2022/01/25 07:07:40;;;;;;;;;;;0.90;99.90;;;;;;5002402;28;20296;-77
2022/01/25 07:10:07;;;;;;;;;;;1.00;99.90;;;;;;4996406;28;20434;-76
2022/01/25 07:12:36;;;;;;;;;;;1.00;99.90;;;;;;4997396;28;20300;-76
2022/01/25 07:15:03;;;;;;;;;;;1.10;99.90;;;;;;5000687;28;19968;-75
2022/01/25 07:17:29;;;;;;;;;;;1.10;99.90;;;;;;4999441;28;20672;-75
2022/01/25 07:19:56;;;;;;;;;;;1.10;99.90;;;;;;5004888;28;19932;-77
2022/01/25 07:22:22;;;;;;;;;;;1.20;99.90;;;;;;5005723;28;19929;-75
2022/01/25 07:24:49;;;;;;;;;;;1.20;99.90;;;;;;5009937;28;19940;-76
2022/01/25 07:27:16;;;;;;;;;;;1.20;99.90;;;;;;4998070;28;19926;-76
2022/01/25 07:29:44;;;;;;;;;;;1.20;99.90;;;;;;5005159;28;20364;-76
2022/01/25 07:32:11;;;;;;;;;;;1.20;99.90;;;;;;5001967;28;20300;-77
2022/01/25 07:34:37;;;;;;;;;;;1.20;99.90;;;;;;5005674;28;19926;-77
2022/01/25 07:37:04;;;;;;;;;;;1.30;99.90;;;;;;4998664;28;19943;-76
2022/01/25 07:39:31;;;;;;;;;;;1.30;99.90;;;;;;4997631;28;20017;-75
2022/01/25 07:41:58;;;;;;;;;;;1.30;99.90;;;;;;4998992;28;19930;-76
2022/01/25 07:44:31;;;;;;;;;;;1.40;99.90;;;;;;5003512;28;19926;-77
2022/01/25 07:47:01;;;;;;;;;;;1.40;99.90;;;;;;4997057;28;19974;-78
2022/01/25 07:49:27;;;;;;;;;;;1.40;99.90;;;;;;5005553;28;19941;-78
2022/01/25 07:51:54;;;;;;;;;;;1.30;99.90;;;;;;4996124;28;19971;-76
2022/01/25 07:54:21;;;;;;;;;;;1.40;99.90;;;;;;4992497;28;19926;-76
2022/01/25 07:56:51;;;;;;;;;;;1.50;99.90;;;;;;4992593;28;19926;-75
2022/01/25 07:59:18;;;;;;;;;;;1.60;99.90;;;;;;4993487;28;20046;-76
2022/01/25 08:01:44;;;;;;;;;;;1.60;99.90;;;;;;4995330;28;19940;-76
2022/01/25 08:04:14;;;;;;;;;;;1.70;99.90;;;;;;4993594;28;19925;-76
2022/01/25 08:06:41;;;;;;;;;;;1.70;99.90;;;;;;4996757;28;19926;-77
2022/01/25 08:09:08;;;;;;;;;;;1.80;99.90;;;;;;4994267;28;20395;-76
2022/01/25 08:11:36;;;;;;;;;;;1.70;99.90;;;;;;5002663;28;19926;-77
2022/01/25 08:14:12;;;;;;;;;;;1.70;99.90;;;;;;5001234;28;20292;-77
2022/01/25 08:16:39;;;;;;;;;;;1.70;99.90;;;;;;4996616;28;19930;-77
2022/01/25 08:19:06;;;;;;;;;;;1.60;99.90;;;;;;5002479;28;19944;-78
2022/01/25 08:21:36;;;;;;;;;;;1.50;99.90;;;;;;4994239;28;20388;-77
2022/01/25 08:24:03;;;;;;;;;;;1.50;99.90;;;;;;4997083;28;19936;-78
2022/01/25 08:26:32;;;;;;;;;;;1.40;99.90;;;;;;4999240;28;19933;-78
2022/01/25 08:29:02;;;;;;;;;;;1.50;99.90;;;;;;5008042;28;20270;-78
2022/01/25 08:31:29;;;;;;;;;;;1.50;99.90;;;;;;5005335;28;19932;-80
2022/01/25 08:33:55;;;;;;;;;;;1.60;99.90;;;;;;5019501;28;19909;-80
2022/01/25 08:36:22;;;;;;;;;;;1.70;99.90;;;;;;5023846;28;19914;-78
2022/01/25 08:38:50;;;;;;;;;;;1.70;99.90;;;;;;4996737;28;19929;-78
2022/01/25 08:41:17;;;;;;;;;;;1.60;99.90;;;;;;4996486;28;19948;-78
2022/01/25 08:43:44;;;;;;;;;;;1.70;99.90;;;;;;5002232;28;19936;-77
2022/01/25 08:46:11;;;;;;;;;;;1.70;99.90;;;;;;4994024;28;19949;-78
2022/01/25 08:48:38;;;;;;;;;;;1.80;99.90;;;;;;4992320;28;20097;-76
2022/01/25 08:51:10;;;;;;;;;;;1.80;99.90;;;;;;4991860;28;20445;-76
2022/01/25 08:53:37;;;;;;;;;;;2.00;99.90;;;;;;4999897;28;19933;-74
2022/01/25 08:56:05;;;;;;;;;;;2.00;99.90;;;;;;5001159;28;19925;-76
2022/01/25 08:58:32;;;;;;;;;;;2.00;99.90;;;;;;5001353;28;19926;-75
2022/01/25 09:00:59;;;;;;;;;;;2.00;99.90;;;;;;5001037;28;20000;-77
2022/01/25 09:03:25;;;;;;;;;;;2.10;99.90;;;;;;5001462;28;20442;-75
2022/01/25 09:05:52;;;;;;;;;;;2.30;99.90;;;;;;5004319;28;20439;-75
2022/01/25 09:08:21;;;;;;;;;;;2.30;99.90;;;;;;4997479;28;19969;-76
2022/01/25 09:10:50;;;;;;;;;;;2.40;99.90;;;;;;4999987;28;19933;-75
2022/01/25 09:13:18;;;;;;;;;;;2.50;99.90;;;;;;4995848;28;20108;-76
2022/01/25 09:15:45;;;;;;;;;;;2.60;99.90;;;;;;4995084;28;19925;-75
2022/01/25 09:18:12;;;;;;;;;;;2.70;99.90;;;;;;4998880;28;19982;-74
2022/01/25 09:20:38;;;;;;;;;;;2.70;99.90;;;;;;5000289;28;19930;-75
2022/01/25 09:23:05;;;;;;;;;;;2.70;99.90;;;;;;4997900;28;19932;-75
2022/01/25 09:25:32;;;;;;;;;;;2.60;99.90;;;;;;4994423;28;19933;-72
2022/01/25 09:27:59;;;;;;;;;;;2.70;99.90;;;;;;4998252;28;19925;-73
2022/01/25 09:30:27;;;;;;;;;;;2.70;99.90;;;;;;4997159;28;20376;-73
2022/01/25 09:32:54;;;;;;;;;;;2.80;99.90;;;;;;4995373;28;19930;-75
2022/01/25 09:35:21;;;;;;;;;;;2.90;99.90;;;;;;4997538;28;19926;-75
2022/01/25 09:37:48;;;;;;;;;;;2.90;99.90;;;;;;5003072;28;19932;-75
2022/01/25 09:40:14;;;;;;;;;;;2.90;99.90;;;;;;4997306;28;19930;-77
2022/01/25 09:42:41;;;;;;;;;;;2.90;99.90;;;;;;4997074;28;20356;-76
2022/01/25 09:45:08;;;;;;;;;;;2.70;99.90;;;;;;5002124;28;20014;-76
2022/01/25 09:47:39;;;;;;;;;;;2.70;99.90;;;;;;4996809;28;19926;-78
2022/01/25 09:50:06;;;;;;;;;;;2.80;99.90;;;;;;4991077;28;19925;-76
2022/01/25 09:52:33;;;;;;;;;;;2.70;99.90;;;;;;4999733;28;20089;-74
2022/01/25 09:55:01;;;;;;;;;;;2.50;99.90;;;;;;4992260;28;20013;-77
2022/01/25 09:57:29;;;;;;;;;;;2.60;99.90;;;;;;4992913;28;19937;-76
2022/01/25 09:59:56;;;;;;;;;;;2.60;99.90;;;;;;4992206;28;19930;-74
2022/01/25 10:02:45;;;;;;;;;;;2.50;99.90;;;;;;5000468;28;20376;-75
2022/01/25 10:05:16;;;;;;;;;;;2.50;99.90;;;;;;5000783;28;19982;-77
2022/01/25 10:07:43;;;;;;;;;;;2.60;99.90;;;;;;4992494;28;19934;-76
2022/01/25 10:10:10;;;;;;;;;;;2.50;99.90;;;;;;4993577;28;19934;-76
2022/01/25 10:12:36;;;;;;;;;;;2.70;99.90;;;;;;4994016;28;19934;-75
2022/01/25 10:15:10;;;;;;;;;;;2.80;99.90;;;;;;4992466;28;20198;-75
2022/01/25 10:17:41;;;;;;;;;;;2.80;99.90;;;;;;4991905;28;19925;-76
2022/01/25 10:20:24;;;;;;;;;;;2.70;99.90;;;;;;5000812;28;19994;-76
2022/01/25 10:22:51;;;;;;;;;;;2.80;99.90;;;;;;4992008;28;20056;-77
2022/01/25 10:25:28;;;;;;;;;;;2.60;99.90;;;;;;4990914;28;20314;-76
2022/01/25 10:28:03;;;;;;;;;;;2.60;99.90;;;;;;5005622;28;19934;-77
2022/01/25 10:30:36;;;;;;;;;;;2.50;99.90;;;;;;4993547;28;19925;-76
2022/01/25 10:33:03;;;;;;;;;;;2.60;99.90;;;;;;4990370;28;19932;-76
2022/01/25 10:35:31;;;;;;;;;;;2.80;99.90;;;;;;4992537;28;19932;-75
2022/01/25 10:37:58;;;;;;;;;;;3.00;99.90;;;;;;4994069;28;19933;-76
2022/01/25 10:40:38;;;;;;;;;;;3.10;99.90;;;;;;4991511;28;19933;-75
2022/01/25 10:43:05;;;;;;;;;;;3.00;99.90;;;;;;4992061;28;20014;-74
2022/01/25 10:45:32;;;;;;;;;;;2.70;99.90;;;;;;5000399;28;19929;-73
2022/01/25 10:47:59;;;;;;;;;;;2.70;99.90;;;;;;4995292;28;20084;-76
2022/01/25 10:50:26;;;;;;;;;;;2.70;99.90;;;;;;4988998;28;19940;-76
2022/01/25 10:53:05;;;;;;;;;;;2.70;99.90;;;;;;4995052;28;19933;-75
2022/01/25 10:55:36;;;;;;;;;;;2.70;99.90;;;;;;4988079;28;19944;-76
2022/01/25 10:58:03;;;;;;;;;;;2.80;99.90;;;;;;4994254;28;20013;-75
2022/01/25 11:00:31;;;;;;;;;;;2.90;99.90;;;;;;4989291;28;20454;-74
2022/01/25 11:02:58;;;;;;;;;;;2.90;99.90;;;;;;4991626;28;20396;-75
2022/01/25 11:05:26;;;;;;;;;;;2.90;99.90;;;;;;4996783;28;19990;-76
2022/01/25 11:07:54;;;;;;;;;;;2.70;99.90;;;;;;4989923;28;20364;-78
2022/01/25 11:10:22;;;;;;;;;;;2.80;99.90;;;;;;4994135;28;19930;-75
2022/01/25 11:13:02;;;;;;;;;;;2.80;99.90;;;;;;4990185;28;20016;-75
2022/01/25 11:15:28;;;;;;;;;;;2.80;99.90;;;;;;4992715;28;20376;-75
2022/01/25 11:17:55;;;;;;;;;;;2.90;99.90;;;;;;4994514;28;20029;-74
2022/01/25 11:20:22;;;;;;;;;;;2.80;99.90;;;;;;4994145;28;19933;-75
2022/01/25 11:22:49;;;;;;;;;;;2.80;99.90;;;;;;5004571;28;20380;-74
2022/01/25 11:25:19;;;;;;;;;;;2.80;99.90;;;;;;4990253;28;19948;-74
2022/01/25 11:27:48;;;;;;;;;;;2.90;99.90;;;;;;4994667;28;19933;-75
2022/01/25 11:30:18;;;;;;;;;;;2.80;99.90;;;;;;4984375;28;20290;-76
2022/01/25 11:32:49;;;;;;;;;;;2.80;99.90;;;;;;4997687;28;19948;-75
2022/01/25 11:35:16;;;;;;;;;;;2.80;99.90;;;;;;4998385;28;19944;-74
2022/01/25 11:37:44;;;;;;;;;;;2.80;99.90;;;;;;4995095;28;19929;-74
2022/01/25 11:40:21;;;;;;;;;;;2.80;99.90;;;;;;4998578;28;19926;-74
2022/01/25 11:42:50;;;;;;;;;;;2.80;99.90;;;;;;5000379;28;19934;-75
2022/01/25 11:45:20;;;;;;;;;;;2.70;99.90;;;;;;4992600;28;20353;-75
2022/01/25 11:47:48;;;;;;;;;;;2.80;99.90;;;;;;4994348;28;20069;-75
2022/01/25 11:50:16;;;;;;;;;;;2.70;99.90;;;;;;4993953;28;20381;-77
2022/01/25 11:52:47;;;;;;;;;;;2.80;99.90;;;;;;4994112;28;20024;-74
2022/01/25 11:55:21;;;;;;;;;;;2.70;99.90;;;;;;4993517;28;20384;-75
2022/01/25 11:57:50;;;;;;;;;;;2.80;99.90;;;;;;4995533;28;19925;-75
2022/01/25 12:00:17;;;;;;;;;;;2.80;99.90;;;;;;4991048;28;19926;-75
2022/01/25 12:02:44;;;;;;;;;;;2.80;99.90;;;;;;4995318;28;19933;-76
2022/01/25 12:05:12;;;;;;;;;;;2.70;99.90;;;;;;4990780;28;20284;-74
2022/01/25 12:07:40;;;;;;;;;;;3.00;99.90;;;;;;4997310;28;20028;-75
2022/01/25 12:10:22;;;;;;;;;;;3.00;99.90;;;;;;5002020;28;19989;-74
2022/01/25 12:13:06;;;;;;;;;;;3.00;99.90;;;;;;4982098;28;19932;-74
2022/01/25 12:15:35;;;;;;;;;;;3.00;99.90;;;;;;4993868;28;22358;-74
2022/01/25 12:18:02;;;;;;;;;;;3.00;99.90;;;;;;4986763;28;19926;-74
2022/01/25 12:20:29;;;;;;;;;;;3.00;99.90;;;;;;4995113;28;20423;-75
2022/01/25 12:23:05;;;;;;;;;;;2.90;99.90;;;;;;4997085;28;19957;-75
2022/01/25 12:25:47;;;;;;;;;;;2.90;99.90;;;;;;4990900;28;19926;-75
2022/01/25 12:28:22;;;;;;;;;;;2.90;99.90;;;;;;4991228;28;20013;-75
2022/01/25 12:30:50;;;;;;;;;;;2.80;99.90;;;;;;4992216;28;19929;-75
2022/01/25 12:33:21;;;;;;;;;;;2.80;99.90;;;;;;4996145;28;19925;-76
2022/01/25 12:35:49;;;;;;;;;;;2.90;99.90;;;;;;4991411;28;20016;-76
2022/01/25 12:38:20;;;;;;;;;;;3.00;99.90;;;;;;4991827;28;20203;-77
2022/01/25 12:40:51;;;;;;;;;;;2.90;99.90;;;;;;4995002;28;19926;-76
2022/01/25 12:43:20;;;;;;;;;;;3.00;99.90;;;;;;4999896;28;20324;-76
2022/01/25 12:45:48;;;;;;;;;;;3.00;99.90;;;;;;4994899;28;19933;-76
2022/01/25 12:48:17;;;;;;;;;;;3.00;99.90;;;;;;4994162;28;20406;-76
2022/01/25 12:50:45;;;;;;;;;;;3.00;99.90;;;;;;4994100;28;20032;-78
2022/01/25 12:53:12;;;;;;;;;;;3.10;99.90;;;;;;4989359;28;19933;-76
2022/01/25 12:55:40;;;;;;;;;;;3.00;99.90;;;;;;4990175;28;19933;-76
2022/01/25 12:58:07;;;;;;;;;;;2.90;99.90;;;;;;4993806;28;19937;-76
2022/01/25 13:00:35;;;;;;;;;;;3.00;99.90;;;;;;4997137;28;19933;-75
2022/01/25 13:03:12;;;;;;;;;;;3.10;99.90;;;;;;4999903;28;20392;-76
2022/01/25 13:05:45;;;;;;;;;;;3.00;99.90;;;;;;4998004;28;19945;-75
2022/01/25 13:08:15;;;;;;;;;;;3.10;99.90;;;;;;4990234;28;19939;-76
2022/01/25 13:10:41;;;;;;;;;;;3.10;99.90;;;;;;4991404;28;20016;-75
2022/01/25 13:13:21;;;;;;;;;;;3.00;99.90;;;;;;4990637;28;19926;-75
2022/01/25 13:15:56;;;;;;;;;;;3.00;99.90;;;;;;4997407;28;20008;-75
2022/01/25 13:18:23;;;;;;;;;;;3.00;99.90;;;;;;4987720;28;20153;-74
2022/01/25 13:21:00;;;;;;;;;;;3.10;99.90;;;;;;4994678;28;20312;-74
2022/01/25 13:23:26;;;;;;;;;;;3.10;99.90;;;;;;4990433;28;19930;-74
2022/01/25 13:26:06;;;;;;;;;;;3.20;99.90;;;;;;4987638;28;19933;-74
2022/01/25 13:28:37;;;;;;;;;;;3.10;99.90;;;;;;4994738;28;19941;-75
2022/01/25 13:31:07;;;;;;;;;;;3.20;99.90;;;;;;4993863;28;19926;-74
2022/01/25 13:33:33;;;;;;;;;;;3.20;99.90;;;;;;4989015;28;19940;-74
2022/01/25 13:36:02;;;;;;;;;;;3.20;99.90;;;;;;4993290;28;19926;-75
2022/01/25 13:38:30;;;;;;;;;;;3.10;99.90;;;;;;4991723;28;19969;-75
2022/01/25 13:41:06;;;;;;;;;;;3.10;99.90;;;;;;4996213;28;19932;-75
2022/01/25 13:46:16;;;;;;;;;;;3.10;99.90;;;;;;4963055;28;19982;-75
2022/01/25 13:48:43;;;;;;;;;;;3.10;99.90;;;;;;4993127;28;20042;-75
2022/01/25 13:51:12;;;;;;;;;;;3.10;99.90;;;;;;4997570;28;20156;-76
2022/01/25 13:53:42;;;;;;;;;;;3.10;99.90;;;;;;4988618;28;20714;-76
2022/01/25 13:56:11;;;;;;;;;;;3.20;99.90;;;;;;4999710;28;19929;-75
2022/01/25 13:58:42;;;;;;;;;;;3.30;99.90;;;;;;4995585;28;19926;-74
2022/01/25 14:01:10;;;;;;;;;;;3.30;99.90;;;;;;4994651;28;20755;-75
2022/01/25 14:03:38;;;;;;;;;;;3.30;99.90;;;;;;4990919;28;20645;-76
2022/01/25 14:09:04;;;;;;;;;;;3.30;99.90;;;;;;5119639;27;20046;-73
2022/01/25 14:11:38;;;;;;;;;;;3.30;99.90;;;;;;5121422;27;20030;-74
2022/01/25 14:22:36;;;;;;;;;;;3.30;99.90;;;;;;5125803;27;19982;-77
2022/01/25 14:25:04;;;;;;;;;;;3.20;99.90;;;;;;5116689;27;19992;-73
2022/01/25 14:27:39;;;;;;;;;;;3.20;99.90;;;;;;5128595;27;19943;-75
2022/01/25 14:30:06;;;;;;;;;;;3.20;99.90;;;;;;5117173;27;19977;-74
2022/01/25 14:32:34;;;;;;;;;;;3.20;99.90;;;;;;5120053;27;19928;-74
2022/01/25 14:35:02;;;;;;;;;;;3.20;99.90;;;;;;5123095;27;19932;-75
2022/01/25 14:37:28;;;;;;;;;;;3.10;99.90;;;;;;5126150;27;20551;-76
2022/01/25 14:40:04;;;;;;;;;;;3.20;99.90;;;;;;5122023;27;19935;-76
2022/01/25 14:42:30;;;;;;;;;;;3.30;99.90;;;;;;5125308;27;19967;-75
2022/01/25 14:45:01;;;;;;;;;;;3.40;99.90;;;;;;5119969;27;19931;-74
2022/01/25 14:47:35;;;;;;;;;;;3.40;99.90;;;;;;5117513;27;20382;-75
2022/01/25 14:50:01;;;;;;;;;;;3.50;99.90;;;;;;5121725;27;22108;-75
2022/01/25 14:52:28;;;;;;;;;;;3.60;99.90;;;;;;5118182;27;19932;-75
2022/01/25 14:54:55;;;;;;;;;;;3.60;99.90;;;;;;5121274;27;19932;-75
2022/01/25 14:57:31;;;;;;;;;;;3.60;99.90;;;;;;5122080;27;19928;-75
2022/01/25 15:00:00;;;;;;;;;;;3.60;99.90;;;;;;5123506;27;19935;-76
2022/01/25 15:02:27;;;;;;;;;;;3.40;99.90;;;;;;5115112;27;19932;-75
2022/01/25 15:04:55;;;;;;;;;;;3.40;99.90;;;;;;5121666;27;19924;-74
2022/01/25 15:07:22;;;;;;;;;;;3.30;99.90;;;;;;5114437;27;19924;-76
2022/01/25 15:09:53;;;;;;;;;;;3.30;99.90;;;;;;5125403;27;19927;-76
2022/01/25 15:12:21;;;;;;;;;;;3.40;99.90;;;;;;5121432;27;19928;-76
2022/01/25 15:14:55;;;;;;;;;;;3.40;99.90;;;;;;5125543;27;20070;-75
2022/01/25 15:17:22;;;;;;;;;;;3.40;99.90;;;;;;5120942;27;19928;-76
2022/01/25 15:19:49;;;;;;;;;;;3.40;99.90;;;;;;5113610;27;19942;-74
2022/01/25 15:22:18;;;;;;;;;;;3.40;99.90;;;;;;5103188;27;19934;-75
2022/01/25 15:24:46;;;;;;;;;;;3.40;99.90;;;;;;5111873;27;19933;-76
2022/01/25 15:27:15;;;;;;;;;;;3.50;99.90;;;;;;5105134;27;20674;-76
2022/01/25 15:29:42;;;;;;;;;;;3.60;99.90;;;;;;5108632;27;19938;-77
2022/01/25 15:32:10;;;;;;;;;;;3.70;99.90;;;;;;5107984;27;20014;-76
2022/01/25 15:34:39;;;;;;;;;;;3.60;99.90;;;;;;5112410;27;19931;-76
2022/01/25 15:37:06;;;;;;;;;;;3.50;99.90;;;;;;5110427;27;19931;-76
2022/01/25 15:39:34;;;;;;;;;;;3.50;99.90;;;;;;5115264;27;19974;-77
2022/01/25 15:42:02;;;;;;;;;;;3.60;99.90;;;;;;5106869;27;19935;-75
2022/01/25 15:44:36;;;;;;;;;;;3.60;99.90;;;;;;5113873;27;20298;-75
2022/01/25 15:47:05;;;;;;;;;;;3.70;99.90;;;;;;5102968;27;19924;-75
2022/01/25 15:49:33;;;;;;;;;;;3.70;99.90;;;;;;5109764;27;19928;-75
2022/01/25 15:52:00;;;;;;;;;;;3.70;99.90;;;;;;5108816;27;19930;-75
2022/01/25 15:54:27;;;;;;;;;;;3.80;99.90;;;;;;5107962;27;19930;-75
2022/01/25 15:56:54;;;;;;;;;;;3.80;99.90;;;;;;5107823;27;20391;-74
2022/01/25 15:59:22;;;;;;;;;;;3.80;99.90;;;;;;5113829;27;19930;-75